Airport View

Enter AWOS ICAO identifier for current METAR.

ex. KFNL

KMDD 212315Z AUTO 16014KT 10SM BKN100 BKN120 27/19 A2996 RMK AO2 LTG DSNT NW T02680187

21 Sep 2019 23:24

Frequency: 118.125

Phone: 432-687-4605

Other Area AWOS: KMAF - KODO - KE11 - KBPG

TAF AMD KMAF 211937Z 2120/2218 17011KT P6SM SCT030 BKN100 TEMPO 2121/2201 VRB20G35KT 5SM TSRA BKN035CB FM220300 13010KT P6SM BKN050 TEMPO 2203/2207 VRB20G30KT 2SM TSRA BKN030CB FM221100 18007KT P6SM BKN100